Coastal Carolina Regional Airport New Bern US
ICAO: KEWN
IATA: EWN
Category: Medium
Scheduled Services: Yes

Elevation: 18 ft
TransAlt. 18000 ft.

Airport Communications:
CHERRY POINT APP/DEP:119.35
ASOS:118.525
CLNC DEL:120.525
CTAF:124.25
GND:121.7
RALEIGH RDO:122.2
NEW BERN TWR:124.25

KEWN Zoom In..

If you have problems with the map follow the link
https://www.worldairports.se/pages/airport.php?
ICAO=KEWN

Runways:

(A) RW 04 length 6453 ft width 150 ft
ILS 110.50 / hdg 39

(B) RW 14 length 4000 ft width 150 ft
---- / hdg 136

(C) RW 22 length 6453 ft width 150 ft
---- / hdg 219

(D) RW 32 length 4000 ft width 150 ft
---- / hdg 316

Location; KEWN
Day. 16 / Time. 03.05 Zulu
* Altimeter: 29.88
* Temperature: 08° c. 46.4°f.
* Wind from: 260° Speed 13 kn with Gusts up to 24 kn.
Dewpoint: 06° c.
Visibility: 10 Statute Miles.
Clouds: Overcast 1000 ft.

KEWN 160305Z AUTO 26013G24KT 10SM OVC010 08/06 A2988 RMK AO2 CIG 008V012 T00780061


Wind From 260°
Speed 13 kn.

 
 
jpsmedia.com for Web Design worldairports.se 2018   terms of use